Time;durP1;ratioP1;P1;durP2;ratioP2;P2;SDS_P1;SDS_P2;PMS_P1;PMS_P2;Temp;Humidity;BMP_temperature;BMP_pressure;BME280_temperature;BME280_humidity;BME280_pressure;Samples;Min_cycle;Max_cycle;Signal;HPM_P1;HPM_P2
2022/04/12 00:01:17;;;;;;;5.55;5.32;;;4.90;99.90;;;;;;4160948;28;20045;-49
2022/04/12 00:03:19;;;;;;;4.93;4.82;;;4.80;99.90;;;;;;4160569;28;20452;-47
2022/04/12 00:05:21;;;;;;;5.18;4.97;;;4.60;99.90;;;;;;4164009;28;20041;-50
2022/04/12 00:07:32;;;;;;;4.00;2.65;;;4.50;99.90;;;;;;4164946;28;20409;-48
2022/04/12 00:09:34;;;;;;;4.85;4.53;;;4.50;99.90;;;;;;4162242;28;20297;-49
2022/04/12 00:11:36;;;;;;;4.55;4.32;;;4.60;99.90;;;;;;4161459;28;20041;-47
2022/04/12 00:13:38;;;;;;;4.90;4.70;;;4.60;99.90;;;;;;4160637;28;20103;-49
2022/04/12 00:15:40;;;;;;;5.25;5.05;;;4.60;99.90;;;;;;4160567;28;20075;-49
2022/04/12 00:20:04;;;;;;;4.97;4.78;;;4.50;99.90;;;;;;4160594;28;20064;-50
2022/04/12 00:22:06;;;;;;;;;;;4.50;99.90;;;;;;4160826;28;20459;-50
2022/04/12 00:24:08;;;;;;;5.25;4.90;;;4.50;99.90;;;;;;4160403;28;19920;-49
2022/04/12 00:26:11;;;;;;;4.78;4.47;;;4.60;99.90;;;;;;4160481;28;20482;-47
2022/04/12 00:28:14;;;;;;;6.00;5.60;;;4.50;99.90;;;;;;4169684;28;20103;-50
2022/04/12 00:30:17;;;;;;;4.80;4.38;;;4.40;99.90;;;;;;4169592;28;20055;-49
2022/04/12 00:32:19;;;;;;;3.80;3.60;;;4.40;99.90;;;;;;4160602;28;20080;-50
2022/04/12 00:34:21;;;;;;;5.63;5.50;;;4.50;99.90;;;;;;4160373;28;20041;-49
2022/04/12 00:36:23;;;;;;;5.40;5.15;;;4.40;99.90;;;;;;4160325;28;20046;-49
2022/04/12 00:38:25;;;;;;;4.68;4.35;;;4.10;99.90;;;;;;4160429;28;20124;-48
2022/04/12 00:40:27;;;;;;;4.82;4.63;;;3.80;99.90;;;;;;4169484;28;20045;-47
2022/04/12 00:42:31;;;;;;;4.90;4.70;;;3.70;99.90;;;;;;4160456;28;20042;-48
2022/04/12 00:44:33;;;;;;;3.97;3.88;;;3.80;99.90;;;;;;4160043;28;20580;-47
2022/04/12 00:46:35;;;;;;;4.35;4.25;;;3.70;99.90;;;;;;4160132;28;20033;-50
2022/04/12 00:48:37;;;;;;;4.40;4.15;;;3.70;99.90;;;;;;4160084;28;20053;-49
2022/04/12 00:50:41;;;;;;;4.82;4.47;;;3.90;99.90;;;;;;4164875;28;20115;-47
2022/04/12 00:52:49;;;;;;;2.63;2.53;;;3.80;99.90;;;;;;4160332;28;20400;-48
2022/04/12 00:54:53;;;;;;;3.33;3.33;;;3.70;99.90;;;;;;4160149;28;20041;-48
2022/04/12 00:56:56;;;;;;;4.30;3.97;;;3.60;99.90;;;;;;4160184;28;20075;-48
2022/04/12 00:59:02;;;;;;;4.35;4.10;;;3.70;99.90;;;;;;4159014;28;20076;-47
2022/04/12 01:01:04;;;;;;;3.72;3.42;;;3.60;99.90;;;;;;4165173;28;20044;-48
2022/04/12 01:03:07;;;;;;;3.75;3.47;;;3.50;99.90;;;;;;4162924;28;20493;-47
2022/04/12 01:05:09;;;;;;;4.13;3.80;;;3.60;99.90;;;;;;4159524;28;20444;-48
2022/04/12 01:07:12;;;;;;;4.90;4.60;;;3.50;99.90;;;;;;4161406;28;20168;-48
2022/04/12 01:09:14;;;;;;;4.50;4.40;;;3.50;99.90;;;;;;4174855;28;20045;-49
2022/04/12 01:11:18;;;;;;;4.05;3.85;;;3.30;99.90;;;;;;4175736;28;20068;-50
2022/04/12 01:13:21;;;;;;;3.38;3.28;;;3.30;99.90;;;;;;4162039;28;20096;-50
2022/04/12 01:15:24;;;;;;;4.50;4.30;;;3.20;99.90;;;;;;4159671;28;20544;-48
2022/04/12 01:17:26;;;;;;;2.78;2.78;;;3.20;99.90;;;;;;4163232;28;20497;-48
2022/04/12 01:19:28;;;;;;;3.92;3.83;;;3.20;99.90;;;;;;4161522;28;20060;-50
2022/04/12 01:21:52;;;;;;;4.22;4.03;;;3.20;99.90;;;;;;4160287;28;20038;-48
2022/04/12 01:24:03;;;;;;;4.25;4.05;;;3.30;99.90;;;;;;4160262;28;20178;-48
2022/04/12 01:26:06;;;;;;;4.38;4.18;;;3.50;99.90;;;;;;4159594;28;20448;-47
2022/04/12 01:28:10;;;;;;;4.10;4.00;;;3.50;99.90;;;;;;4160435;28;20057;-49
2022/04/12 01:30:12;;;;;;;4.40;4.28;;;3.40;99.90;;;;;;4159912;28;20124;-48
2022/04/12 01:32:14;;;;;;;5.20;4.90;;;3.40;99.90;;;;;;4160028;28;20562;-48
2022/04/12 01:34:16;;;;;;;4.90;4.68;;;3.40;99.90;;;;;;4159895;28;20045;-48
2022/04/12 01:36:19;;;;;;;5.65;5.50;;;3.40;99.90;;;;;;4160105;28;20505;-49
2022/04/12 01:38:21;;;;;;;;;;;3.40;99.90;;;;;;4160752;28;20115;-47
2022/04/12 01:40:23;;;;;;;4.90;4.60;;;3.20;99.90;;;;;;4159568;28;19921;-48
2022/04/12 01:42:25;;;;;;;4.55;4.22;;;3.10;99.90;;;;;;4160205;28;20037;-47
2022/04/12 01:44:27;;;;;;;5.40;4.95;;;3.00;99.90;;;;;;4163799;28;20029;-50
2022/04/12 01:46:29;;;;;;;4.85;4.75;;;3.20;99.90;;;;;;4159509;28;20038;-49
2022/04/12 01:48:31;;;;;;;4.15;4.00;;;3.10;99.90;;;;;;4159774;28;20395;-50
2022/04/12 01:50:33;;;;;;;4.35;4.25;;;3.10;99.90;;;;;;4165195;28;20037;-50
2022/04/12 01:52:36;;;;;;;5.03;4.93;;;3.20;99.90;;;;;;4173270;28;20072;-49
2022/04/12 01:54:38;;;;;;;5.18;5.07;;;3.20;99.90;;;;;;4159454;28;20497;-47
2022/04/12 01:56:40;;;;;;;6.30;6.20;;;3.10;99.90;;;;;;4159786;28;20311;-50
2022/04/12 01:58:42;;;;;;;5.63;5.50;;;2.90;99.90;;;;;;4159798;28;20109;-50
2022/04/12 02:00:44;;;;;;;5.35;5.25;;;2.80;99.90;;;;;;4159603;28;20042;-48
2022/04/12 02:02:47;;;;;;;4.90;4.80;;;2.80;99.90;;;;;;4159550;28;20452;-49
2022/04/12 02:04:49;;;;;;;5.07;4.88;;;2.80;99.90;;;;;;4159880;28;20413;-48
2022/04/12 02:06:51;;;;;;;4.68;4.57;;;2.60;99.90;;;;;;4158672;28;20053;-49
2022/04/12 02:08:53;;;;;;;5.90;5.70;;;2.50;99.90;;;;;;4170076;28;20042;-48
2022/04/12 02:10:55;;;;;;;5.10;4.93;;;2.50;99.90;;;;;;4162247;28;20045;-47
2022/04/12 02:12:57;;;;;;;5.00;4.90;;;2.50;99.90;;;;;;4162897;28;20049;-48
2022/04/12 02:14:59;;;;;;;6.53;6.43;;;2.50;99.90;;;;;;4162523;28;20049;-48
2022/04/12 02:17:01;;;;;;;5.78;5.60;;;2.40;99.90;;;;;;4162509;28;20065;-50
2022/04/12 02:19:03;;;;;;;5.70;5.50;;;2.50;99.90;;;;;;4164311;28;20517;-48
2022/04/12 02:21:05;;;;;;;7.07;6.60;;;2.60;99.90;;;;;;4162775;28;20041;-50
2022/04/12 02:23:08;;;;;;;5.18;5.07;;;2.50;99.90;;;;;;4162491;28;20472;-48
2022/04/12 02:25:10;;;;;;;4.80;4.70;;;2.60;99.90;;;;;;4161880;28;20069;-50
2022/04/12 02:27:12;;;;;;;6.55;6.25;;;2.60;99.90;;;;;;4162662;28;20064;-49
2022/04/12 02:29:14;;;;;;;5.15;4.82;;;2.60;99.90;;;;;;4162311;28;20034;-48
2022/04/12 02:31:16;;;;;;;5.55;5.15;;;2.60;99.90;;;;;;4162289;28;20444;-48
2022/04/12 02:33:18;;;;;;;5.60;5.45;;;2.60;99.90;;;;;;4162395;28;20041;-51
2022/04/12 02:35:20;;;;;;;9.57;5.57;;;2.70;99.90;;;;;;4161784;28;20095;-49
2022/04/12 02:37:22;;;;;;;6.35;6.15;;;2.50;99.90;;;;;;4162379;28;20045;-48
2022/04/12 02:39:24;;;;;;;6.63;6.32;;;2.30;99.90;;;;;;4163387;28;20052;-50
2022/04/12 02:41:26;;;;;;;6.03;5.80;;;2.20;99.90;;;;;;4162416;28;20045;-49
2022/04/12 02:43:28;;;;;;;6.40;6.15;;;2.20;99.90;;;;;;4166129;28;20068;-51
2022/04/12 02:45:31;;;;;;;7.63;7.03;;;2.20;99.90;;;;;;4168027;28;20041;-47
2022/04/12 02:47:33;;;;;;;7.38;6.63;;;2.10;99.90;;;;;;4163218;28;20400;-49
2022/04/12 02:49:35;;;;;;;5.40;5.30;;;2.20;99.90;;;;;;4178357;28;20033;-49
2022/04/12 02:51:37;;;;;;;7.05;6.85;;;2.40;99.90;;;;;;4162009;28;20455;-50
2022/04/12 02:53:39;;;;;;;7.13;6.93;;;2.40;99.90;;;;;;4167486;28;20137;-49
2022/04/12 02:55:41;;;;;;;5.63;5.35;;;2.40;99.90;;;;;;4162097;28;20085;-49
2022/04/12 02:57:42;;;;;;;6.53;6.13;;;2.40;99.90;;;;;;4161685;28;20481;-51
2022/04/12 02:59:45;;;;;;;5.53;5.43;;;2.50;99.90;;;;;;4162263;28;20064;-48
2022/04/12 03:01:47;;;;;;;7.03;6.57;;;2.40;99.90;;;;;;4162021;28;20038;-49
2022/04/12 03:03:50;;;;;;;5.85;5.75;;;2.30;99.90;;;;;;4161357;28;20029;-50
2022/04/12 03:05:52;;;;;;;6.72;6.53;;;2.20;99.90;;;;;;4162128;28;20052;-48
2022/04/12 03:07:54;;;;;;;6.13;5.65;;;2.20;99.90;;;;;;4168473;28;20041;-50
2022/04/12 03:09:56;;;;;;;6.32;6.20;;;2.30;99.90;;;;;;4162074;28;20057;-51
2022/04/12 03:11:58;;;;;;;7.03;6.18;;;2.40;99.90;;;;;;4170047;28;20087;-49
2022/04/12 03:14:00;;;;;;;6.03;5.88;;;2.50;99.90;;;;;;4165831;28;20084;-48
2022/04/12 03:16:02;;;;;;;5.13;4.88;;;2.50;99.90;;;;;;4162071;28;20049;-50
2022/04/12 03:18:04;;;;;;;5.80;5.50;;;2.40;99.90;;;;;;4161699;28;20038;-48
2022/04/12 03:20:07;;;;;;;5.80;5.70;;;2.30;99.90;;;;;;4161419;28;20042;-47
2022/04/12 03:22:09;;;;;;;5.25;5.15;;;2.20;99.90;;;;;;4160062;28;20092;-48
2022/04/12 03:24:11;;;;;;;4.65;4.65;;;2.40;99.90;;;;;;4161492;28;20046;-48
2022/04/12 03:26:13;;;;;;;3.83;3.72;;;2.40;99.90;;;;;;4161731;28;20034;-48
2022/04/12 03:28:15;;;;;;;8.48;4.97;;;2.50;99.90;;;;;;4161298;28;20095;-48
2022/04/12 03:30:17;;;;;;;5.63;5.40;;;2.50;99.90;;;;;;4161711;28;20061;-49
2022/04/12 03:32:19;;;;;;;5.10;4.93;;;2.30;99.90;;;;;;4161184;28;20037;-51
2022/04/12 03:34:21;;;;;;;7.32;6.68;;;2.10;99.90;;;;;;4161477;28;20049;-49
2022/04/12 03:36:23;;;;;;;6.13;5.88;;;2.20;99.90;;;;;;4161687;28;20053;-48
2022/04/12 03:38:25;;;;;;;6.57;6.18;;;2.10;99.90;;;;;;4161069;28;20103;-51
2022/04/12 03:40:31;;;;;;;9.05;4.90;;;2.00;99.90;;;;;;4161540;28;20041;-50
2022/04/12 03:42:33;;;;;;;6.43;6.13;;;1.90;99.90;;;;;;4160819;28;20037;-49
2022/04/12 03:44:35;;;;;;;6.45;6.18;;;2.00;99.90;;;;;;4173937;28;20547;-50
2022/04/12 03:46:37;;;;;;;6.15;5.78;;;1.90;99.90;;;;;;4161698;28;20041;-50
2022/04/12 03:48:39;;;;;;;5.57;5.38;;;1.90;99.90;;;;;;4160546;28;20462;-50
2022/04/12 03:50:41;;;;;;;5.95;5.53;;;2.00;99.90;;;;;;4163265;28;20041;-47
2022/04/12 03:52:43;;;;;;;6.47;6.28;;;2.00;99.90;;;;;;4160873;28;20528;-48
2022/04/12 03:54:45;;;;;;;7.63;7.15;;;1.90;99.90;;;;;;4161020;28;20485;-50
2022/04/12 03:56:47;;;;;;;7.30;7.03;;;2.10;99.90;;;;;;4161044;28;20083;-50
2022/04/12 03:58:50;;;;;;;9.98;9.13;;;2.10;99.90;;;;;;4161111;28;20171;-49
2022/04/12 04:00:52;;;;;;;8.18;7.57;;;2.00;99.90;;;;;;4161312;28;20401;-48
2022/04/12 04:02:55;;;;;;;7.85;6.78;;;2.00;99.90;;;;;;4160782;28;20049;-51
2022/04/12 04:04:57;;;;;;;7.25;6.70;;;2.00;99.90;;;;;;4160772;28;20390;-49
2022/04/12 04:06:59;;;;;;;6.80;6.47;;;1.90;99.90;;;;;;4161010;28;20038;-49
2022/04/12 04:09:01;;;;;;;7.20;6.93;;;1.80;99.90;;;;;;4166047;28;20087;-47
2022/04/12 04:11:03;;;;;;;7.43;6.97;;;1.60;99.90;;;;;;4167816;28;20036;-47
2022/04/12 04:13:08;;;;;;;4.75;4.40;;;1.70;99.90;;;;;;4170858;28;20531;-46
2022/04/12 04:15:14;;;;;;;5.53;5.22;;;1.80;99.90;;;;;;4160641;28;20053;-50
2022/04/12 04:17:16;;;;;;;5.50;5.30;;;1.60;99.90;;;;;;4160967;28;20041;-48
2022/04/12 04:19:18;;;;;;;7.80;6.35;;;1.50;99.90;;;;;;4160568;28;20400;-47
2022/04/12 04:21:20;;;;;;;5.85;5.45;;;1.40;99.90;;;;;;4160629;28;20539;-49
2022/04/12 04:23:22;;;;;;;6.07;5.88;;;1.30;99.90;;;;;;4161207;28;20042;-49
2022/04/12 04:25:24;;;;;;;5.57;5.22;;;1.20;99.90;;;;;;4160771;28;20073;-47
2022/04/12 04:27:29;;;;;;;5.15;4.95;;;1.10;99.90;;;;;;4160531;28;20072;-48
2022/04/12 04:29:33;;;;;;;6.57;6.32;;;1.10;99.90;;;;;;4160272;28;20500;-47
2022/04/12 04:31:35;;;;;;;6.57;6.38;;;1.10;99.90;;;;;;4158746;28;20049;-50
2022/04/12 04:33:37;;;;;;;6.63;6.32;;;1.00;99.90;;;;;;4160305;28;20136;-47
2022/04/12 04:35:40;;;;;;;6.47;6.38;;;1.10;99.90;;;;;;4160612;28;20488;-49
2022/04/12 04:37:45;;;;;;;;;;;1.10;99.90;;;;;;4161003;28;20045;-48
2022/04/12 04:39:48;;;;;;;5.65;5.25;;;1.10;99.90;;;;;;4165513;28;19988;-51
2022/04/12 04:41:50;;;;;;;6.47;5.90;;;1.10;99.90;;;;;;4160562;28;20496;-49
2022/04/12 04:43:52;;;;;;;5.22;4.80;;;1.20;99.90;;;;;;4159918;28;20076;-49
2022/04/12 04:45:54;;;;;;;5.45;5.35;;;1.20;99.90;;;;;;4164327;28;20091;-49
2022/04/12 04:47:58;;;;;;;6.07;5.95;;;1.20;99.90;;;;;;4167437;28;20048;-48
2022/04/12 04:50:01;;;;;;;6.20;6.10;;;1.20;99.90;;;;;;4165445;28;20082;-47
2022/04/12 04:52:04;;;;;;;6.07;5.80;;;1.30;99.90;;;;;;4171546;28;20125;-51
2022/04/12 04:54:07;;;;;;;6.70;6.40;;;1.30;99.90;;;;;;4160239;28;20041;-48
2022/04/12 04:56:09;;;;;;;7.13;6.95;;;1.30;99.90;;;;;;4160589;28;20538;-49
2022/04/12 04:58:11;;;;;;;7.43;6.95;;;1.20;99.90;;;;;;4160130;28;20057;-50
2022/04/12 05:00:16;;;;;;;8.13;7.80;;;1.10;99.90;;;;;;4160188;28;20485;-47
2022/04/12 05:02:18;;;;;;;7.45;6.97;;;1.00;99.90;;;;;;4160090;28;20416;-48
2022/04/12 05:04:20;;;;;;;7.30;7.00;;;1.00;99.90;;;;;;4159797;28;20038;-47
2022/04/12 05:06:22;;;;;;;8.77;8.45;;;0.90;99.90;;;;;;4160251;28;20041;-50
2022/04/12 05:08:24;;;;;;;7.75;7.45;;;0.80;99.90;;;;;;4169573;28;20037;-50
2022/04/12 05:10:34;;;;;;;8.18;7.57;;;0.80;99.90;;;;;;4173393;28;20037;-48
2022/04/12 05:12:39;;;;;;;7.85;7.55;;;0.80;99.90;;;;;;4170218;28;20042;-49
2022/04/12 05:14:41;;;;;;;8.20;7.47;;;0.70;99.90;;;;;;4159860;28;20497;-50
2022/04/12 05:16:44;;;;;;;7.47;6.82;;;0.70;99.90;;;;;;4160295;28;20045;-48
2022/04/12 05:18:46;;;;;;;7.57;7.25;;;0.70;99.90;;;;;;4159952;28;20061;-51
2022/04/12 05:20:49;;;;;;;7.30;7.10;;;0.70;99.90;;;;;;4159935;28;20099;-49
2022/04/12 05:22:52;;;;;;;7.15;6.95;;;0.80;99.90;;;;;;4159973;28;20504;-47
2022/04/12 05:24:54;;;;;;;;;;;0.80;99.90;;;;;;4169975;28;20037;-47
2022/04/12 05:26:56;;;;;;;5.93;5.72;;;0.90;99.90;;;;;;4170659;28;20033;-46
2022/04/12 05:28:58;;;;;;;6.47;6.28;;;0.90;99.90;;;;;;4159686;28;20050;-48
2022/04/12 05:31:00;;;;;;;5.40;5.30;;;1.00;99.90;;;;;;4159046;28;20041;-46
2022/04/12 05:33:02;;;;;;;5.97;5.75;;;1.10;99.90;;;;;;4159908;28;20394;-46
2022/04/12 05:35:06;;;;;;;7.22;6.68;;;1.20;99.90;;;;;;4159887;28;20140;-46
2022/04/12 05:37:08;;;;;;;6.40;6.13;;;1.20;99.90;;;;;;4159751;28;20137;-46
2022/04/12 05:39:10;;;;;;;7.30;6.90;;;1.30;99.90;;;;;;4158133;28;20060;-47
2022/04/12 05:41:12;;;;;;;6.60;6.40;;;1.40;99.90;;;;;;4159721;28;20053;-46
2022/04/12 05:43:14;;;;;;;7.22;6.80;;;1.40;99.90;;;;;;4165633;28;20061;-46
2022/04/12 05:45:17;;;;;;;6.90;6.68;;;1.40;99.90;;;;;;4178156;28;20045;-46
2022/04/12 05:47:19;;;;;;;6.53;6.32;;;1.50;99.90;;;;;;4167327;28;20064;-45
2022/04/12 05:49:22;;;;;;;5.85;5.75;;;1.50;99.90;;;;;;4164628;28;20049;-46
2022/04/12 05:51:24;;;;;;;6.20;6.03;;;1.60;99.90;;;;;;4178727;28;20033;-46
2022/04/12 05:53:27;;;;;;;6.28;5.93;;;1.80;99.90;;;;;;4162714;28;20440;-46
2022/04/12 05:55:30;;;;;;;5.13;5.03;;;1.80;99.90;;;;;;4162672;28;20436;-47
2022/04/12 05:57:34;;;;;;;5.35;5.25;;;1.90;99.90;;;;;;4162747;28;20050;-48
2022/04/12 05:59:36;;;;;;;4.07;3.90;;;1.90;99.90;;;;;;4162807;28;20111;-46
2022/04/12 06:01:38;;;;;;;5.40;5.20;;;2.00;99.90;;;;;;4162967;28;20080;-46
2022/04/12 06:03:40;;;;;;;6.50;5.97;;;2.30;99.90;;;;;;4162548;28;20048;-46
2022/04/12 06:05:43;;;;;;;9.15;8.60;;;2.40;99.90;;;;;;4162776;28;20059;-46
2022/04/12 06:07:46;;;;;;;13.57;9.27;;;2.30;99.90;;;;;;4164711;28;20515;-47
2022/04/12 06:09:48;;;;;;;10.75;9.77;;;2.30;99.90;;;;;;4163083;28;20070;-47
2022/04/12 06:11:50;;;;;;;10.57;9.88;;;2.50;99.90;;;;;;4167594;28;20033;-46
2022/04/12 06:13:52;;;;;;;9.20;8.57;;;2.50;99.90;;;;;;4162191;28;20046;-47
2022/04/12 06:15:54;;;;;;;6.70;6.40;;;2.70;99.90;;;;;;4162780;28;20181;-46
2022/04/12 06:17:56;;;;;;;6.82;6.63;;;2.90;99.90;;;;;;4167884;28;20454;-46
2022/04/12 06:20:19;;;;;;;6.95;6.32;;;3.10;99.90;;;;;;4162636;28;20041;-46
2022/04/12 06:22:21;;;;;;;6.55;5.88;;;3.40;99.90;;;;;;4162292;28;20096;-45
2022/04/12 06:24:24;;;;;;;5.57;5.47;;;3.60;99.90;;;;;;4162299;28;20033;-50
2022/04/12 06:26:26;;;;;;;5.68;5.40;;;3.70;99.90;;;;;;4162708;28;20041;-46
2022/04/12 06:28:29;;;;;;;7.22;6.93;;;3.80;99.90;;;;;;4162218;28;20548;-46
2022/04/12 06:30:31;;;;;;;5.78;5.45;;;3.90;99.90;;;;;;4162613;28;20459;-48
2022/04/12 06:32:34;;;;;;;5.40;5.07;;;4.10;99.90;;;;;;4162486;28;20507;-47
2022/04/12 06:34:36;;;;;;;7.38;7.03;;;4.20;99.90;;;;;;4162231;28;20042;-46
2022/04/12 06:36:38;;;;;;;6.38;5.70;;;4.40;99.90;;;;;;4162450;28;20053;-46
2022/04/12 06:38:41;;;;;;;5.10;4.78;;;4.50;99.90;;;;;;4169338;28;20045;-46
2022/04/12 06:40:44;;;;;;;5.13;4.82;;;4.60;99.90;;;;;;4169079;28;20095;-47
2022/04/12 06:42:47;;;;;;;4.88;4.55;;;4.70;99.90;;;;;;4162290;28;20070;-46
2022/04/12 06:44:50;;;;;;;4.60;4.50;;;4.80;99.90;;;;;;4164346;28;20107;-47
2022/04/12 06:46:51;;;;;;;5.50;5.10;;;4.90;99.90;;;;;;4164496;28;20026;-46
2022/04/12 06:48:54;;;;;;;4.05;3.85;;;5.00;99.90;;;;;;4178544;28;20041;-47
2022/04/12 06:50:56;;;;;;;4.07;3.72;;;5.10;99.90;;;;;;4164750;28;20041;-49
2022/04/12 06:52:58;;;;;;;5.70;3.85;;;5.10;99.90;;;;;;4161991;28;20119;-46
2022/04/12 06:55:01;;;;;;;4.15;4.00;;;5.30;99.90;;;;;;4161358;28;20048;-47
2022/04/12 06:57:03;;;;;;;3.50;3.38;;;5.50;99.90;;;;;;4162265;28;20041;-48
2022/04/12 06:59:06;;;;;;;2.97;2.78;;;5.60;99.90;;;;;;4160573;28;20046;-48
2022/04/12 07:01:08;;;;;;;3.97;3.70;;;5.80;99.90;;;;;;4168043;28;20048;-47
2022/04/12 07:03:13;;;;;;;3.83;3.53;;;5.90;99.90;;;;;;4171855;28;20029;-47
2022/04/12 07:05:17;;;;;;;2.90;2.75;;;6.00;99.90;;;;;;4161729;28;20099;-47
2022/04/12 07:07:19;;;;;;;2.30;2.15;;;6.30;99.90;;;;;;4162438;28;20041;-47
2022/04/12 07:09:21;;;;;;;2.10;1.83;;;6.40;99.90;;;;;;4162024;28;20075;-47
2022/04/12 07:11:23;;;;;;;3.05;2.58;;;6.60;99.90;;;;;;4165154;28;20087;-47
2022/04/12 07:13:25;;;;;;;2.13;2.13;;;6.70;99.90;;;;;;4164154;28;20068;-48
2022/04/12 07:15:27;;;;;;;2.25;2.25;;;6.90;99.90;;;;;;4161314;28;20037;-46
2022/04/12 07:17:30;;;;;;;2.58;2.38;;;7.10;99.90;;;;;;4165073;28;20124;-46
2022/04/12 07:19:32;;;;;;;2.38;2.28;;;7.20;99.90;;;;;;4168505;28;20516;-46
2022/04/12 07:21:34;;;;;;;2.58;2.47;;;7.20;99.90;;;;;;4159750;28;20541;-47
2022/04/12 07:23:36;;;;;;;1.80;1.70;;;7.40;99.90;;;;;;4161706;28;20037;-47
2022/04/12 07:25:38;;;;;;;2.00;1.90;;;7.60;99.90;;;;;;4161503;28;20128;-48
2022/04/12 07:27:40;;;;;;;1.75;1.58;;;7.70;99.90;;;;;;4161571;28;20042;-46
2022/04/12 07:29:43;;;;;;;2.20;2.10;;;7.80;99.90;;;;;;4175755;28;20300;-47
2022/04/12 07:31:45;;;;;;;1.88;1.80;;;8.00;99.90;;;;;;4165755;28;20501;-46
2022/04/12 07:33:47;;;;;;;8.77;2.00;;;8.20;99.90;;;;;;4161625;28;20330;-46
2022/04/12 07:35:50;;;;;;;1.80;1.70;;;8.30;99.90;;;;;;4162206;28;20413;-47
2022/04/12 07:37:52;;;;;;;1.90;1.80;;;8.30;99.90;;;;;;4161056;28;20076;-46
2022/04/12 07:39:55;;;;;;;6.07;2.25;;;8.30;99.90;;;;;;4161421;28;20053;-46
2022/04/12 07:41:57;;;;;;;5.28;1.63;;;8.60;99.90;;;;;;4160892;28;20037;-46
2022/04/12 07:44:00;;;;;;;3.90;1.20;;;8.80;99.90;;;;;;4168212;28;20039;-47
2022/04/12 07:46:03;;;;;;;2.38;1.95;;;9.00;99.90;;;;;;4161405;28;20041;-47
2022/04/12 07:48:22;;;;;;;4.05;1.55;;;9.10;99.90;;;;;;4160882;28;20124;-47
2022/04/12 07:50:24;;;;;;;6.03;2.10;;;9.20;99.90;;;;;;4168491;28;20095;-46
2022/04/12 07:52:26;;;;;;;5.45;1.20;;;9.50;99.90;;;;;;4161007;28;20037;-47
2022/04/12 07:54:28;;;;;;;2.72;1.65;;;9.60;99.90;;;;;;4161207;28;20103;-47
2022/04/12 07:56:31;;;;;;;1.65;1.65;;;10.10;99.90;;;;;;4161299;28;20355;-47
2022/04/12 07:58:33;;;;;;;1.15;1.15;;;10.10;99.90;;;;;;4160891;28;20456;-47
2022/04/12 08:00:35;;;;;;;3.25;1.50;;;10.10;99.90;;;;;;4160883;28;20129;-48
2022/04/12 08:02:37;;;;;;;1.63;1.52;;;10.10;99.90;;;;;;4160968;28;20449;-47
2022/04/12 08:04:42;;;;;;;1.20;1.20;;;10.30;99.90;;;;;;4160731;28;20497;-48
2022/04/12 08:06:45;;;;;;;1.88;1.75;;;10.50;99.90;;;;;;4159794;28;20554;-47
2022/04/12 08:08:48;;;;;;;5.53;1.60;;;10.70;99.90;;;;;;4161121;28;20041;-49
2022/04/12 08:10:51;;;;;;;3.15;1.20;;;10.80;99.90;;;;;;4172948;28;20065;-47
2022/04/12 08:12:54;;;;;;;1.25;1.10;;;10.90;99.90;;;;;;4165934;28;20099;-47
2022/04/12 08:14:57;;;;;;;1.13;1.10;;;11.20;99.90;;;;;;4160979;28;20046;-47
2022/04/12 08:16:59;;;;;;;1.85;1.10;;;11.30;99.90;;;;;;4160639;28;20099;-46
2022/04/12 08:19:01;;;;;;;1.10;1.10;;;11.40;99.90;;;;;;4171175;28;20049;-48
2022/04/12 08:21:03;;;;;;;1.85;1.10;;;11.50;99.90;;;;;;4161056;28;20048;-47
2022/04/12 08:23:06;;;;;;;1.40;1.40;;;11.50;99.90;;;;;;4159011;28;20068;-46
2022/04/12 08:25:10;;;;;;;1.40;1.17;;;11.50;99.90;;;;;;4160682;28;20080;-47
2022/04/12 08:27:14;;;;;;;4.22;1.30;;;11.90;99.90;;;;;;4174629;28;20032;-47
2022/04/12 08:29:16;;;;;;;1.25;1.20;;;12.50;99.90;;;;;;4164705;28;20396;-46
2022/04/12 08:31:19;;;;;;;1.05;1.00;;;12.50;99.90;;;;;;4167722;28;20043;-47
2022/04/12 08:33:21;;;;;;;1.85;1.20;;;12.50;99.70;;;;;;4171196;28;20712;-47
2022/04/12 08:35:23;;;;;;;2.25;1.10;;;12.80;98.90;;;;;;4171301;28;20555;-48
2022/04/12 08:37:25;;;;;;;1.20;1.20;;;13.20;99.00;;;;;;4161833;28;20095;-49
2022/04/12 08:39:27;;;;;;;2.47;1.00;;;13.20;97.50;;;;;;4160670;28;20041;-47
2022/04/12 08:41:31;;;;;;;1.23;1.20;;;13.30;96.50;;;;;;4160867;28;20045;-47
2022/04/12 08:43:34;;;;;;;1.42;1.33;;;13.50;99.30;;;;;;4164976;28;20059;-49
2022/04/12 08:45:37;;;;;;;1.58;1.05;;;13.80;94.00;;;;;;4161419;28;20119;-47
2022/04/12 08:47:40;;;;;;;2.28;0.90;;;13.50;93.80;;;;;;4161187;28;20195;-47
2022/04/12 08:49:43;;;;;;;5.13;1.00;;;13.70;96.80;;;;;;4163392;28;20040;-48
2022/04/12 08:51:46;;;;;;;1.80;1.13;;;13.50;95.10;;;;;;4167336;28;20520;-47
2022/04/12 08:53:50;;;;;;;1.00;1.00;;;13.50;94.50;;;;;;4160285;28;20044;-47
2022/04/12 08:55:53;;;;;;;1.15;1.05;;;14.00;94.40;;;;;;4160562;28;20060;-48
2022/04/12 08:57:55;;;;;;;2.58;1.17;;;14.10;94.20;;;;;;4160175;28;20041;-47
2022/04/12 08:59:57;;;;;;;2.35;1.10;;;14.60;93.40;;;;;;4161587;28;20088;-48
2022/04/12 09:01:59;;;;;;;0.95;0.95;;;14.50;94.20;;;;;;4158893;28;20549;-48
2022/04/12 09:04:02;;;;;;;1.00;1.00;;;14.40;80.30;;;;;;4159836;28;20125;-47
2022/04/12 09:06:04;;;;;;;0.90;0.90;;;14.30;84.40;;;;;;4160240;28;20041;-50
2022/04/12 09:08:29;;;;;;;1.00;1.00;;;14.50;79.90;;;;;;4169635;28;20041;-47
2022/04/12 09:10:36;;;;;;;1.00;1.00;;;14.30;70.70;;;;;;4164351;28;20432;-48
2022/04/12 09:12:38;;;;;;;0.90;0.90;;;14.40;71.50;;;;;;4163295;28;20069;-48
2022/04/12 09:14:46;;;;;;;3.60;1.00;;;14.70;73.20;;;;;;4160103;28;20045;-47
2022/04/12 09:16:49;;;;;;;4.78;1.00;;;14.60;73.50;;;;;;4160225;28;20045;-47
2022/04/12 09:18:51;;;;;;;1.33;1.00;;;14.70;72.70;;;;;;4171841;28;20037;-47
2022/04/12 09:20:56;;;;;;;0.95;0.90;;;14.60;74.60;;;;;;4163668;28;20046;-47
2022/04/12 09:23:00;;;;;;;1.60;1.00;;;15.20;73.30;;;;;;4163258;28;20341;-46
2022/04/12 09:25:04;;;;;;;0.90;0.90;;;14.80;74.30;;;;;;4163101;28;20049;-48
2022/04/12 09:27:12;;;;;;;1.00;1.00;;;15.00;69.70;;;;;;4166772;28;20064;-48
2022/04/12 09:29:15;;;;;;;1.38;1.30;;;15.20;75.40;;;;;;4164646;28;20421;-47
2022/04/12 09:31:18;;;;;;;1.10;1.10;;;15.00;70.50;;;;;;4163350;28;20096;-48
2022/04/12 09:33:36;;;;;;;1.55;1.00;;;15.10;69.20;;;;;;4162891;28;20045;-48
2022/04/12 09:35:39;;;;;;;1.10;1.10;;;15.00;69.10;;;;;;4162943;28;20037;-47
2022/04/12 09:37:43;;;;;;;1.30;1.30;;;14.90;63.30;;;;;;4163525;28;20076;-47
2022/04/12 09:40:08;;;;;;;1.75;0.80;;;15.00;67.80;;;;;;4162848;28;20448;-48
2022/04/12 09:42:11;;;;;;;1.10;1.10;;;15.20;67.00;;;;;;4183072;28;20065;-48
2022/04/12 09:44:17;;;;;;;1.00;0.90;;;15.00;64.60;;;;;;4192347;28;20056;-47
2022/04/12 09:46:19;;;;;;;1.15;0.85;;;15.40;66.40;;;;;;4192152;28;20159;-48
2022/04/12 09:48:34;;;;;;;0.90;0.90;;;15.20;59.30;;;;;;4193360;28;20056;-48
2022/04/12 09:50:50;;;;;;;0.73;0.73;;;15.80;66.10;;;;;;4188947;28;20123;-47
2022/04/12 09:52:54;;;;;;;0.88;0.88;;;15.60;60.90;;;;;;4191635;28;20368;-50
2022/04/12 09:54:57;;;;;;;0.93;0.90;;;15.30;58.40;;;;;;4179321;28;20045;-48
2022/04/12 09:57:03;;;;;;;0.90;0.90;;;15.70;62.70;;;;;;4192389;28;20048;-47
2022/04/12 09:59:20;;;;;;;0.93;0.93;;;15.90;60.60;;;;;;4193389;28;20115;-48
2022/04/12 10:01:23;;;;;;;0.82;0.82;;;15.90;62.10;;;;;;4192257;28;20052;-47
2022/04/12 10:03:27;;;;;;;0.90;0.90;;;15.90;60.30;;;;;;4192200;28;20052;-48
2022/04/12 10:05:30;;;;;;;0.85;0.85;;;15.60;58.30;;;;;;4193330;28;20044;-48
2022/04/12 10:07:33;;;;;;;1.05;1.05;;;15.80;59.20;;;;;;4193217;28;20045;-50
2022/04/12 10:09:37;;;;;;;2.05;0.98;;;16.10;59.30;;;;;;4191953;28;20041;-51
2022/04/12 10:11:40;;;;;;;0.80;0.80;;;16.20;55.30;;;;;;4191923;28;20094;-51
2022/04/12 10:13:43;;;;;;;0.80;0.80;;;16.20;56.30;;;;;;4190206;28;20156;-48
2022/04/12 10:15:46;;;;;;;1.20;1.17;;;15.80;56.70;;;;;;4182084;28;20575;-51
2022/04/12 10:17:52;;;;;;;1.48;1.00;;;16.00;55.00;;;;;;4191243;28;20558;-50
2022/04/12 10:19:55;;;;;;;2.08;0.90;;;16.10;56.90;;;;;;4169263;28;20050;-48
2022/04/12 10:21:57;;;;;;;;;;;16.00;55.80;;;;;;4166984;28;20038;-48
2022/04/12 10:24:01;;;;;;;2.38;2.20;;;16.20;59.10;;;;;;4168267;28;19975;-48
2022/04/12 10:26:03;;;;;;;1.48;0.90;;;15.90;53.70;;;;;;4172266;28;20069;-48
2022/04/12 10:28:06;;;;;;;;;;;15.70;53.30;;;;;;4168271;28;20049;-49
2022/04/12 10:30:17;;;;;;;0.88;0.80;;;16.00;55.10;;;;;;4163350;28;19928;-49
2022/04/12 10:32:19;;;;;;;0.90;0.90;;;16.40;54.70;;;;;;4170756;28;20040;-47
2022/04/12 10:34:34;;;;;;;1.00;1.00;;;16.30;50.80;;;;;;4165090;28;20076;-47
2022/04/12 10:36:54;;;;;;;;;;;16.50;49.00;;;;;;4174205;28;20280;-47
2022/04/12 10:39:17;;;;;;;0.80;0.80;;;16.20;50.90;;;;;;4168664;28;20032;-46
2022/04/12 10:41:42;;;;;;;0.90;0.90;;;16.30;50.00;;;;;;4162233;28;20402;-46
2022/04/12 10:43:44;;;;;;;0.90;0.90;;;16.50;52.60;;;;;;4162461;28;20052;-48
2022/04/12 10:45:53;;;;;;;0.90;0.90;;;16.40;50.30;;;;;;4171103;28;20046;-45
2022/04/12 10:48:01;;;;;;;1.45;0.80;;;16.40;52.60;;;;;;4167133;28;20042;-47
2022/04/12 10:50:08;;;;;;;0.80;0.80;;;16.50;51.80;;;;;;4167910;28;20047;-45
2022/04/12 10:52:14;;;;;;;1.05;0.80;;;16.70;51.60;;;;;;4171286;28;20160;-46